Time;durP1;ratioP1;P1;durP2;ratioP2;P2;SDS_P1;SDS_P2;PMS_P1;PMS_P2;Temp;Humidity;BMP_temperature;BMP_pressure;BME280_temperature;BME280_humidity;BME280_pressure;Samples;Min_cycle;Max_cycle;Signal;HPM_P1;HPM_P2
2021/07/03 00:00:25;;;;;;;11.10;9.00;;;13.80;99.90;;;;;;4992763;28;20050;-44
2021/07/03 00:03:03;;;;;;;11.95;9.95;;;13.70;99.90;;;;;;4992466;28;20082;-48
2021/07/03 00:05:39;;;;;;;11.15;8.70;;;13.70;99.90;;;;;;4992596;28;20050;-45
2021/07/03 00:08:11;;;;;;;14.57;9.20;;;13.70;99.90;;;;;;4992735;28;20422;-45
2021/07/03 00:10:51;;;;;;;11.95;9.32;;;13.60;99.90;;;;;;4996374;28;20046;-47
2021/07/03 00:13:25;;;;;;;13.60;10.07;;;13.60;99.90;;;;;;4992004;28;20085;-46
2021/07/03 00:16:06;;;;;;;16.10;11.32;;;13.70;99.90;;;;;;4998856;28;20100;-49
2021/07/03 00:18:38;;;;;;;17.92;10.95;;;13.60;99.90;;;;;;4992240;28;20070;-45
2021/07/03 00:21:16;;;;;;;16.30;11.93;;;13.60;99.90;;;;;;4991129;28;20077;-45
2021/07/03 00:23:45;;;;;;;12.25;10.80;;;13.60;99.90;;;;;;4991041;28;20427;-46
2021/07/03 00:26:26;;;;;;;13.15;10.80;;;13.60;99.90;;;;;;4991133;28;20046;-46
2021/07/03 00:29:03;;;;;;;13.40;9.93;;;13.50;99.90;;;;;;4990381;28;20824;-45
2021/07/03 00:31:40;;;;;;;11.20;9.73;;;13.50;99.90;;;;;;4991624;28;20076;-46
2021/07/03 00:34:14;;;;;;;13.98;10.15;;;13.50;99.90;;;;;;4991557;28;20074;-46
2021/07/03 00:36:49;;;;;;;10.98;9.02;;;13.50;99.90;;;;;;4990791;28;20112;-46
2021/07/03 00:39:22;;;;;;;12.30;9.38;;;13.50;99.90;;;;;;4991548;28;20065;-47
2021/07/03 00:42:04;;;;;;;12.43;9.73;;;13.40;99.90;;;;;;4990066;28;20117;-45
2021/07/03 00:44:37;;;;;;;12.60;10.95;;;13.40;99.90;;;;;;4974330;28;20128;-45
2021/07/03 00:47:20;;;;;;;12.63;9.27;;;13.40;99.90;;;;;;4974044;28;20054;-47
2021/07/03 00:50:00;;;;;;;12.10;9.20;;;13.40;99.90;;;;;;4977091;28;20050;-47
2021/07/03 00:52:38;;;;;;;13.00;10.50;;;13.40;99.90;;;;;;4976369;28;20057;-45
2021/07/03 00:55:21;;;;;;;14.15;11.25;;;13.40;99.90;;;;;;4990306;28;20042;-45
2021/07/03 00:57:58;;;;;;;11.40;8.90;;;13.30;99.90;;;;;;4989367;28;20062;-48
2021/07/03 01:00:39;;;;;;;11.88;9.43;;;13.30;99.90;;;;;;4991443;28;20521;-46
2021/07/03 01:03:22;;;;;;;13.70;10.23;;;13.20;99.90;;;;;;4989284;28;20129;-45
2021/07/03 01:06:04;;;;;;;12.32;9.60;;;13.20;99.90;;;;;;4990162;28;20054;-48
2021/07/03 01:08:40;;;;;;;13.95;9.38;;;13.10;99.90;;;;;;4990846;28;20054;-46
2021/07/03 01:11:29;;;;;;;11.68;9.50;;;13.10;99.90;;;;;;4990765;28;20046;-47
2021/07/03 01:14:07;;;;;;;10.18;9.10;;;13.10;99.90;;;;;;4973290;28;20054;-46
2021/07/03 01:16:42;;;;;;;11.50;9.60;;;13.00;99.90;;;;;;4973862;28;20145;-45
2021/07/03 01:19:23;;;;;;;13.10;9.23;;;13.00;99.90;;;;;;4990063;28;20101;-48
2021/07/03 01:21:56;;;;;;;11.50;9.27;;;13.00;99.90;;;;;;4989462;28;20101;-46
2021/07/03 01:24:38;;;;;;;11.63;9.45;;;12.90;99.90;;;;;;4989285;28;20533;-44
2021/07/03 01:27:24;;;;;;;12.02;10.40;;;13.00;99.90;;;;;;4974047;28;20100;-45
2021/07/03 01:30:05;;;;;;;11.15;9.85;;;12.90;99.90;;;;;;4989970;28;20113;-46
2021/07/03 01:32:52;;;;;;;12.43;9.88;;;12.90;99.90;;;;;;4989095;28;20082;-47
2021/07/03 01:35:42;;;;;;;12.52;9.73;;;12.90;99.90;;;;;;4980849;28;20529;-46
2021/07/03 01:38:26;;;;;;;10.25;8.55;;;12.90;99.90;;;;;;4989186;28;20094;-47
2021/07/03 01:41:10;;;;;;;8.88;7.97;;;12.90;99.90;;;;;;4988883;28;20061;-46
2021/07/03 01:43:56;;;;;;;10.70;9.20;;;12.80;99.90;;;;;;4988452;28;20101;-48
2021/07/03 01:46:32;;;;;;;9.77;8.77;;;12.80;99.90;;;;;;4988292;28;20055;-46
2021/07/03 01:49:14;;;;;;;10.80;9.18;;;12.80;99.90;;;;;;4971981;28;20568;-48
2021/07/03 01:51:55;;;;;;;9.93;8.90;;;12.80;99.90;;;;;;4988447;28;20502;-47
2021/07/03 01:54:32;;;;;;;9.82;8.82;;;12.90;99.90;;;;;;4988833;28;20137;-46
2021/07/03 01:57:09;;;;;;;10.25;9.25;;;12.90;99.90;;;;;;4989101;28;20057;-48
2021/07/03 02:00:10;;;;;;;;;;;13.00;99.90;;;;;;4983332;28;20054;-46
2021/07/03 02:02:54;;;;;;;11.32;8.60;;;13.00;99.90;;;;;;4992312;28;20421;-49
2021/07/03 02:05:48;;;;;;;11.57;8.68;;;13.00;99.90;;;;;;4988686;28;20050;-46
2021/07/03 02:08:25;;;;;;;11.35;8.50;;;13.00;99.90;;;;;;4989565;28;20145;-46
2021/07/03 02:11:07;;;;;;;11.00;8.77;;;13.00;99.90;;;;;;4996792;28;20046;-46
2021/07/03 02:14:01;;;;;;;9.85;8.45;;;13.00;99.90;;;;;;4989250;28;20051;-47
2021/07/03 02:16:46;;;;;;;9.57;7.47;;;12.90;99.90;;;;;;4989303;28;20057;-46
2021/07/03 02:19:54;;;;;;;10.20;9.05;;;12.90;99.90;;;;;;4947943;29;20831;-47
2021/07/03 02:22:34;;;;;;;13.00;9.60;;;12.90;99.90;;;;;;4948562;28;20055;-46
2021/07/03 02:25:14;;;;;;;10.70;9.50;;;12.90;99.90;;;;;;4948035;28;20067;-46
2021/07/03 02:27:49;;;;;;;10.02;8.05;;;12.90;99.90;;;;;;4947869;29;20047;-47
2021/07/03 02:30:30;;;;;;;9.43;8.02;;;12.90;99.90;;;;;;4947987;28;20067;-45
2021/07/03 02:33:01;;;;;;;11.68;9.93;;;12.90;99.90;;;;;;4947241;29;20055;-47
2021/07/03 02:35:39;;;;;;;11.65;9.85;;;12.90;99.90;;;;;;4947350;29;20087;-47
2021/07/03 02:38:18;;;;;;;10.68;9.05;;;12.90;99.90;;;;;;4931971;29;20047;-44
2021/07/03 02:40:53;;;;;;;12.35;8.88;;;12.80;99.90;;;;;;4947549;29;20512;-46
2021/07/03 02:43:31;;;;;;;11.95;8.82;;;12.80;99.90;;;;;;4951247;28;20070;-46
2021/07/03 02:46:13;;;;;;;11.75;8.63;;;12.80;99.90;;;;;;4968802;28;20121;-46
2021/07/03 02:48:49;;;;;;;11.38;8.63;;;12.70;99.90;;;;;;4968236;28;20145;-45
2021/07/03 02:51:26;;;;;;;12.65;9.60;;;12.70;99.90;;;;;;4985621;28;20054;-46
2021/07/03 02:54:01;;;;;;;11.35;9.35;;;12.70;99.90;;;;;;4987230;28;20412;-45
2021/07/03 02:56:38;;;;;;;11.73;9.05;;;12.70;99.90;;;;;;4971626;28;20088;-45
2021/07/03 02:59:12;;;;;;;13.68;9.13;;;12.60;99.90;;;;;;4994211;28;20392;-46
2021/07/03 03:01:51;;;;;;;12.27;9.43;;;12.60;99.90;;;;;;4989105;28;20050;-46
2021/07/03 03:04:32;;;;;;;11.30;9.23;;;12.60;99.90;;;;;;4984005;28;20401;-46
2021/07/03 03:07:15;;;;;;;12.18;9.63;;;12.50;99.90;;;;;;4972560;28;20355;-45
2021/07/03 03:09:52;;;;;;;12.43;10.88;;;12.50;99.90;;;;;;4973459;28;20046;-45
2021/07/03 03:12:27;;;;;;;13.63;9.65;;;12.50;99.90;;;;;;4988951;28;20062;-45
2021/07/03 03:15:07;;;;;;;11.57;10.38;;;12.40;99.90;;;;;;4971690;28;20050;-45
2021/07/03 03:17:52;;;;;;;11.07;9.70;;;12.40;99.90;;;;;;4987035;28;20050;-47
2021/07/03 03:20:19;;;;;;;9.70;8.80;;;12.40;99.90;;;;;;4992693;28;20050;-46
2021/07/03 03:23:04;;;;;;;11.07;8.98;;;12.30;99.90;;;;;;4995572;28;20096;-46
2021/07/03 03:25:36;;;;;;;11.93;9.18;;;12.30;99.90;;;;;;4967964;28;20050;-45
2021/07/03 03:28:20;;;;;;;12.07;10.23;;;12.30;99.90;;;;;;4958850;28;20061;-48
2021/07/03 03:31:10;;;;;;;12.00;9.05;;;12.30;99.90;;;;;;4975889;28;20763;-46
2021/07/03 03:33:52;;;;;;;12.38;9.18;;;12.30;99.90;;;;;;4958889;28;20105;-45
2021/07/03 03:36:29;;;;;;;14.75;10.10;;;12.40;99.90;;;;;;4976506;28;20090;-45
2021/07/03 03:39:07;;;;;;;12.52;10.15;;;12.40;99.90;;;;;;4976425;28;20050;-46
2021/07/03 03:41:45;;;;;;;16.77;11.82;;;12.40;99.90;;;;;;4944735;28;20050;-47
2021/07/03 03:44:26;;;;;;;14.88;11.90;;;12.50;99.90;;;;;;4958382;28;20054;-45
2021/07/03 03:47:04;;;;;;;12.65;10.55;;;12.70;99.90;;;;;;4958056;28;20398;-48
2021/07/03 03:49:36;;;;;;;9.88;8.88;;;12.70;99.90;;;;;;4975991;28;20558;-47
2021/07/03 03:52:39;;;;;;;10.20;9.15;;;12.80;99.90;;;;;;4994619;28;20050;-46
2021/07/03 03:55:14;;;;;;;11.00;8.80;;;12.90;99.90;;;;;;4994259;28;20474;-47
2021/07/03 03:57:45;;;;;;;11.80;10.60;;;12.90;99.90;;;;;;4994712;28;20054;-50
2021/07/03 04:00:26;;;;;;;14.23;10.95;;;12.90;99.90;;;;;;4977093;28;20133;-47
2021/07/03 04:03:14;;;;;;;12.00;9.75;;;13.00;99.90;;;;;;4994629;28;20144;-47
2021/07/03 04:05:53;;;;;;;12.98;10.05;;;13.10;99.90;;;;;;4993715;28;20100;-46
2021/07/03 04:08:30;;;;;;;9.43;8.43;;;13.10;99.90;;;;;;4995248;28;20054;-47
2021/07/03 04:11:04;;;;;;;15.38;9.68;;;13.20;99.90;;;;;;4995419;28;20073;-46
2021/07/03 04:13:40;;;;;;;13.10;9.35;;;13.20;99.90;;;;;;4995365;28;20054;-47
2021/07/03 04:16:20;;;;;;;11.15;9.95;;;13.20;99.90;;;;;;4995193;28;20050;-46
2021/07/03 04:18:57;;;;;;;9.48;8.48;;;13.20;99.90;;;;;;4995325;28;20050;-45
2021/07/03 04:21:33;;;;;;;12.82;9.65;;;13.20;99.90;;;;;;4994712;28;20485;-46
2021/07/03 04:24:06;;;;;;;12.18;10.13;;;13.20;99.90;;;;;;4995379;28;20522;-46
2021/07/03 04:26:44;;;;;;;14.38;10.95;;;13.20;99.90;;;;;;4995158;28;20082;-48
2021/07/03 04:29:21;;;;;;;14.65;11.15;;;13.20;99.90;;;;;;4995186;28;20110;-46
2021/07/03 04:32:01;;;;;;;13.55;10.82;;;13.30;99.90;;;;;;4992793;28;20065;-46
2021/07/03 04:34:36;;;;;;;13.60;11.45;;;13.30;99.90;;;;;;4994567;28;20463;-45
2021/07/03 04:37:08;;;;;;;15.10;10.68;;;13.40;99.90;;;;;;4990802;28;20065;-48
2021/07/03 04:39:49;;;;;;;13.43;11.07;;;13.40;99.90;;;;;;4990699;28;20565;-46
2021/07/03 04:42:24;;;;;;;14.15;12.75;;;13.40;99.90;;;;;;4991357;28;20050;-47
2021/07/03 04:45:05;;;;;;;15.13;13.55;;;13.50;99.90;;;;;;4990922;28;20050;-49
2021/07/03 04:47:39;;;;;;;17.88;14.25;;;13.50;99.90;;;;;;4990878;28;20050;-47
2021/07/03 04:50:17;;;;;;;18.60;14.35;;;13.50;99.90;;;;;;4990499;28;20054;-47
2021/07/03 04:52:49;;;;;;;18.70;14.85;;;13.60;99.90;;;;;;4991315;28;20049;-45
2021/07/03 04:55:27;;;;;;;16.77;14.90;;;13.70;99.90;;;;;;4991564;28;20066;-45
2021/07/03 04:58:12;;;;;;;23.63;16.90;;;13.80;99.90;;;;;;4990162;28;20058;-46
2021/07/03 05:00:47;;;;;;;22.88;15.70;;;13.90;99.90;;;;;;4991277;28;20063;-46
2021/07/03 05:03:23;;;;;;;18.73;15.82;;;14.00;99.90;;;;;;4990497;28;20077;-45
2021/07/03 05:05:57;;;;;;;17.88;16.05;;;14.10;99.90;;;;;;4990448;28;20137;-45
2021/07/03 05:08:58;;;;;;;17.70;15.40;;;14.20;99.90;;;;;;4992551;28;20414;-49
2021/07/03 05:11:38;;;;;;;17.02;15.23;;;14.30;99.90;;;;;;4999499;28;20061;-45
2021/07/03 05:14:19;;;;;;;14.88;13.15;;;14.60;99.90;;;;;;4988970;28;20065;-46
2021/07/03 05:16:50;;;;;;;17.48;14.80;;;14.90;99.90;;;;;;4986712;28;20491;-45
2021/07/03 05:19:23;;;;;;;15.35;13.18;;;15.20;99.90;;;;;;4985338;28;20165;-49
2021/07/03 05:21:49;;;;;;;17.35;13.60;;;15.40;99.90;;;;;;4986721;28;20050;-46
2021/07/03 05:24:23;;;;;;;15.80;13.48;;;15.80;99.90;;;;;;4986820;28;20085;-48
2021/07/03 05:27:01;;;;;;;14.98;13.50;;;16.10;99.90;;;;;;4986959;28;20506;-46
2021/07/03 05:29:46;;;;;;;17.58;12.68;;;16.50;99.90;;;;;;4987553;28;20495;-48
2021/07/03 05:32:20;;;;;;;14.82;12.38;;;16.70;99.90;;;;;;4993494;28;20458;-46
2021/07/03 05:34:56;;;;;;;13.80;11.43;;;16.90;99.90;;;;;;5002078;28;20133;-46
2021/07/03 05:37:28;;;;;;;11.38;10.18;;;17.30;99.90;;;;;;4987603;28;20065;-47
2021/07/03 05:40:09;;;;;;;13.23;11.18;;;17.40;99.90;;;;;;4988162;28;20056;-46
2021/07/03 05:42:41;;;;;;;17.25;10.20;;;17.70;99.90;;;;;;4988663;28;20050;-47
2021/07/03 05:45:17;;;;;;;12.80;10.45;;;17.80;99.90;;;;;;4989855;28;20057;-49
2021/07/03 05:48:00;;;;;;;13.82;10.98;;;17.90;99.90;;;;;;4989838;28;20066;-48
2021/07/03 05:50:33;;;;;;;14.65;12.55;;;17.70;99.90;;;;;;4993624;28;20049;-50
2021/07/03 05:53:03;;;;;;;39.53;34.33;;;17.70;99.90;;;;;;4989440;28;20423;-46
2021/07/03 05:55:35;;;;;;;16.17;14.52;;;17.80;99.90;;;;;;4989970;28;20065;-47
2021/07/03 05:58:14;;;;;;;40.40;36.35;;;18.20;99.90;;;;;;4990097;28;20150;-48
2021/07/03 06:00:47;;;;;;;22.33;20.13;;;18.60;99.90;;;;;;4988202;28;20054;-46
2021/07/03 06:03:25;;;;;;;29.15;25.98;;;19.00;99.90;;;;;;4992376;28;20066;-47
2021/07/03 06:06:02;;;;;;;13.70;12.10;;;19.10;99.90;;;;;;4991479;28;20109;-46
2021/07/03 06:08:37;;;;;;;15.18;13.55;;;19.50;99.90;;;;;;4994420;28;20149;-46
2021/07/03 06:11:16;;;;;;;12.05;10.20;;;19.80;99.90;;;;;;4991630;28;20050;-49
2021/07/03 06:13:45;;;;;;;13.80;12.40;;;20.00;99.90;;;;;;4988110;28;20061;-48
2021/07/03 06:16:19;;;;;;;11.98;10.77;;;20.10;99.90;;;;;;4988548;28;20053;-48
2021/07/03 06:18:55;;;;;;;10.15;8.88;;;20.40;99.90;;;;;;4989229;28;20054;-46
2021/07/03 06:21:31;;;;;;;12.45;8.70;;;20.70;99.90;;;;;;4990093;28;20065;-47
2021/07/03 06:24:10;;;;;;;17.92;15.95;;;20.90;99.90;;;;;;4990128;28;20526;-46
2021/07/03 06:26:48;;;;;;;13.55;10.77;;;20.60;99.90;;;;;;4992362;28;20073;-49
2021/07/03 06:29:24;;;;;;;14.85;10.88;;;20.70;99.90;;;;;;4988693;28;20054;-49
2021/07/03 06:32:08;;;;;;;11.77;7.70;;;20.80;99.90;;;;;;5004098;28;20137;-46
2021/07/03 06:34:46;;;;;;;12.77;10.43;;;21.10;99.90;;;;;;4988649;28;20059;-47
2021/07/03 06:37:20;;;;;;;18.83;13.68;;;21.50;99.90;;;;;;4990975;28;20056;-47
2021/07/03 06:40:00;;;;;;;10.95;7.43;;;21.20;99.90;;;;;;4988516;28;20057;-45
2021/07/03 06:42:38;;;;;;;11.68;8.10;;;21.00;99.90;;;;;;4987220;28;20507;-49
2021/07/03 06:45:10;;;;;;;15.93;12.73;;;20.50;99.90;;;;;;4988800;28;20054;-48
2021/07/03 06:47:48;;;;;;;12.75;8.93;;;20.30;99.90;;;;;;4988471;28;20046;-49
2021/07/03 06:50:17;;;;;;;15.60;12.98;;;20.00;99.90;;;;;;4991313;28;20050;-47
2021/07/03 06:52:53;;;;;;;18.63;16.60;;;19.80;99.90;;;;;;4981706;28;20090;-46
2021/07/03 06:55:26;;;;;;;13.68;11.15;;;19.60;99.90;;;;;;4987301;28;20742;-46
2021/07/03 06:58:00;;;;;;;16.50;13.10;;;19.50;99.90;;;;;;4983201;28;20050;-48
2021/07/03 07:00:35;;;;;;;43.58;39.10;;;19.50;99.90;;;;;;4984526;28;20047;-47
2021/07/03 07:03:05;;;;;;;35.85;30.92;;;19.50;99.90;;;;;;4988344;28;20092;-46
2021/07/03 07:05:41;;;;;;;29.85;26.67;;;19.40;99.90;;;;;;4984917;28;20058;-47
2021/07/03 07:08:15;;;;;;;18.90;14.25;;;19.50;99.90;;;;;;4987600;28;20566;-48
2021/07/03 07:10:50;;;;;;;15.00;13.45;;;19.40;99.90;;;;;;4986984;28;20046;-46
2021/07/03 07:13:25;;;;;;;14.63;11.25;;;19.50;99.90;;;;;;4988016;28;20057;-47
2021/07/03 07:15:59;;;;;;;20.70;18.33;;;19.70;99.90;;;;;;4987867;28;20046;-44
2021/07/03 07:18:31;;;;;;;15.75;11.88;;;19.90;99.90;;;;;;4988473;28;20042;-45
2021/07/03 07:21:06;;;;;;;14.20;11.40;;;20.00;99.90;;;;;;4986905;28;20061;-47
2021/07/03 07:23:35;;;;;;;13.07;11.77;;;19.80;99.90;;;;;;4988285;28;20145;-47
2021/07/03 07:26:12;;;;;;;12.00;10.57;;;19.70;99.90;;;;;;4988230;28;20134;-46
2021/07/03 07:28:50;;;;;;;64.45;57.90;;;19.60;99.90;;;;;;4987155;28;20149;-45
2021/07/03 07:31:29;;;;;;;26.58;23.85;;;19.50;99.90;;;;;;4987777;28;20064;-44
2021/07/03 07:34:13;;;;;;;24.42;20.80;;;19.60;99.90;;;;;;4986563;28;20511;-45
2021/07/03 07:36:55;;;;;;;18.65;16.73;;;19.40;99.90;;;;;;4988400;28;20058;-46
2021/07/03 07:39:33;;;;;;;14.60;11.80;;;19.60;99.90;;;;;;4988679;28;20051;-45
2021/07/03 07:42:18;;;;;;;14.00;10.65;;;19.80;99.90;;;;;;4987912;28;20050;-44
2021/07/03 07:44:58;;;;;;;12.63;10.63;;;20.20;99.90;;;;;;4987879;28;20058;-44
2021/07/03 07:47:35;;;;;;;14.95;10.77;;;20.20;99.90;;;;;;4987861;28;20074;-45
2021/07/03 07:50:08;;;;;;;16.98;14.75;;;20.30;99.90;;;;;;4987474;28;20450;-44
2021/07/03 07:52:46;;;;;;;14.88;11.32;;;20.40;99.90;;;;;;4986208;28;20082;-46
2021/07/03 07:55:20;;;;;;;15.70;12.30;;;20.40;99.90;;;;;;4986868;28;20100;-45
2021/07/03 07:57:58;;;;;;;19.83;16.63;;;20.60;99.90;;;;;;4987198;28;20051;-47
2021/07/03 08:00:30;;;;;;;16.13;12.05;;;20.90;99.90;;;;;;4985950;28;20128;-46
2021/07/03 08:03:07;;;;;;;15.32;13.07;;;21.00;99.90;;;;;;4975169;28;20483;-45
2021/07/03 08:05:46;;;;;;;16.80;15.00;;;21.20;99.90;;;;;;4969152;28;20058;-45
2021/07/03 08:08:26;;;;;;;17.98;15.40;;;21.50;99.90;;;;;;4971961;28;20042;-46
2021/07/03 08:11:07;;;;;;;13.90;11.23;;;21.80;99.90;;;;;;4971644;28;20051;-45
2021/07/03 08:13:43;;;;;;;21.67;17.60;;;22.60;99.90;;;;;;4986988;28;20052;-46
2021/07/03 08:16:15;;;;;;;12.50;10.60;;;23.10;99.30;;;;;;4982909;28;20058;-43
2021/07/03 08:18:53;;;;;;;11.07;8.30;;;23.40;98.10;;;;;;4992919;28;20056;-44
2021/07/03 08:21:34;;;;;;;10.98;9.07;;;23.90;98.10;;;;;;4989922;28;20553;-44
2021/07/03 08:24:00;;;;;;;10.88;9.13;;;24.40;95.40;;;;;;4956488;28;20093;-44
2021/07/03 08:26:40;;;;;;;13.20;8.27;;;24.40;95.30;;;;;;4990947;28;20050;-44
2021/07/03 08:29:25;;;;;;;13.23;9.82;;;24.60;90.10;;;;;;4989367;28;20050;-44
2021/07/03 08:31:59;;;;;;;12.80;9.77;;;24.80;83.30;;;;;;4972934;28;20064;-43
2021/07/03 08:34:48;;;;;;;10.52;8.30;;;24.70;84.90;;;;;;4991692;28;20126;-47
2021/07/03 08:37:24;;;;;;;40.63;36.70;;;24.40;83.60;;;;;;4988793;28;20078;-45
2021/07/03 08:39:54;;;;;;;14.57;10.93;;;24.50;88.80;;;;;;4989561;28;20047;-45
2021/07/03 08:42:23;;;;;;;11.85;9.90;;;24.40;87.50;;;;;;4988248;28;20494;-46
2021/07/03 08:44:53;;;;;;;13.65;11.57;;;24.60;87.20;;;;;;4989694;28;20081;-46
2021/07/03 08:47:26;;;;;;;13.23;10.68;;;24.50;84.90;;;;;;4989569;28;20619;-47
2021/07/03 08:49:55;;;;;;;13.52;10.18;;;24.80;85.20;;;;;;4987953;28;20058;-47
2021/07/03 08:52:35;;;;;;;13.55;10.40;;;24.90;83.70;;;;;;4994743;28;20054;-45
2021/07/03 08:55:17;;;;;;;14.88;10.50;;;25.30;84.80;;;;;;4989052;28;20065;-47
2021/07/03 08:57:53;;;;;;;14.18;12.38;;;25.70;81.70;;;;;;4989539;28;20081;-49
2021/07/03 09:00:33;;;;;;;14.63;12.07;;;25.80;74.40;;;;;;4989660;28;20050;-45
2021/07/03 09:03:15;;;;;;;12.23;10.85;;;25.20;79.20;;;;;;4994781;28;20465;-47
2021/07/03 09:05:53;;;;;;;14.55;11.00;;;25.20;80.40;;;;;;4987268;28;20189;-46
2021/07/03 09:08:27;;;;;;;14.10;12.32;;;25.30;79.20;;;;;;4993524;28;20049;-46
2021/07/03 09:11:08;;;;;;;14.93;11.98;;;25.20;75.30;;;;;;4972068;28;20046;-48
2021/07/03 09:13:40;;;;;;;16.17;13.40;;;25.00;75.70;;;;;;4984291;28;20049;-46
2021/07/03 09:16:13;;;;;;;14.40;11.50;;;24.70;77.20;;;;;;4993843;28;20042;-46
2021/07/03 09:18:42;;;;;;;13.98;12.40;;;25.10;77.70;;;;;;4988510;28;20065;-47
2021/07/03 09:21:16;;;;;;;17.88;15.48;;;25.40;76.60;;;;;;4989961;28;20050;-46
2021/07/03 09:23:56;;;;;;;19.70;17.73;;;25.20;78.20;;;;;;4990561;28;20586;-47
2021/07/03 09:26:26;;;;;;;16.75;13.65;;;24.90;78.70;;;;;;4991212;28;20084;-48
2021/07/03 09:28:58;;;;;;;15.35;13.70;;;24.90;78.00;;;;;;4990309;28;20050;-49
2021/07/03 09:31:42;;;;;;;14.98;11.88;;;25.30;78.90;;;;;;4989384;28;20530;-46
2021/07/03 09:34:17;;;;;;;16.40;14.70;;;26.00;76.20;;;;;;4991044;28;20057;-48
2021/07/03 09:37:03;;;;;;;15.77;14.13;;;26.30;72.10;;;;;;4978021;28;20043;-49
2021/07/03 09:39:43;;;;;;;13.23;11.30;;;26.30;73.30;;;;;;4975807;28;20046;-48
2021/07/03 09:42:15;;;;;;;24.15;21.67;;;26.60;74.50;;;;;;4984245;28;20061;-47
2021/07/03 09:44:57;;;;;;;15.95;13.75;;;26.90;71.10;;;;;;4989870;28;20058;-46
2021/07/03 09:47:33;;;;;;;18.38;14.10;;;27.20;71.60;;;;;;4990150;28;20054;-48
2021/07/03 09:50:12;;;;;;;13.30;11.90;;;27.40;67.50;;;;;;4989601;28;20054;-47
2021/07/03 09:52:49;;;;;;;12.35;11.15;;;27.30;63.80;;;;;;4990123;28;20053;-48
2021/07/03 09:55:25;;;;;;;16.63;14.93;;;27.60;65.40;;;;;;4988671;28;20479;-47
2021/07/03 09:58:03;;;;;;;16.60;12.30;;;27.60;61.70;;;;;;4996414;28;20050;-47
2021/07/03 10:00:41;;;;;;;11.33;9.33;;;27.50;61.50;;;;;;4989464;28;20053;-50
2021/07/03 10:03:13;;;;;;;16.45;14.27;;;27.80;61.30;;;;;;4990848;28;20933;-46
2021/07/03 10:05:56;;;;;;;13.77;9.95;;;28.00;59.20;;;;;;4989238;28;20045;-47
2021/07/03 10:08:35;;;;;;;12.57;11.27;;;28.10;57.50;;;;;;4992328;28;20697;-47
2021/07/03 10:11:10;;;;;;;9.73;8.73;;;27.90;56.70;;;;;;4986297;28;20628;-48
2021/07/03 10:13:40;;;;;;;11.98;10.55;;;28.40;57.60;;;;;;4990700;28;20074;-46
2021/07/03 10:16:08;;;;;;;12.50;9.55;;;28.60;58.30;;;;;;4993566;28;20529;-46
2021/07/03 10:18:37;;;;;;;12.60;9.38;;;28.30;57.70;;;;;;4989695;28;20061;-44
2021/07/03 10:21:12;;;;;;;10.68;9.55;;;28.30;58.50;;;;;;4989149;28;20157;-44
2021/07/03 10:23:44;;;;;;;17.35;15.50;;;28.50;57.60;;;;;;4989473;28;20058;-45
2021/07/03 10:26:13;;;;;;;13.25;10.63;;;28.70;57.70;;;;;;4989383;28;20047;-46
2021/07/03 10:28:44;;;;;;;13.30;9.70;;;29.00;56.00;;;;;;4989109;28;20677;-45
2021/07/03 10:31:32;;;;;;;11.02;9.68;;;29.20;57.50;;;;;;4971291;28;20845;-46
2021/07/03 10:34:01;;;;;;;12.85;10.25;;;29.40;55.80;;;;;;4990111;28;20043;-46
2021/07/03 10:36:32;;;;;;;10.82;9.18;;;29.20;55.30;;;;;;4991063;28;20058;-45
2021/07/03 10:39:05;;;;;;;10.13;8.40;;;29.40;53.40;;;;;;4992236;28;20053;-46
2021/07/03 10:41:40;;;;;;;12.93;11.65;;;29.80;55.20;;;;;;4988944;28;20522;-45
2021/07/03 10:44:14;;;;;;;10.82;9.68;;;30.10;53.70;;;;;;4994847;28;20070;-49
2021/07/03 10:46:54;;;;;;;22.70;20.50;;;29.90;51.90;;;;;;4989289;28;20097;-48
2021/07/03 10:49:31;;;;;;;14.52;13.15;;;29.90;51.40;;;;;;4970938;28;20659;-46
2021/07/03 10:52:15;;;;;;;13.65;10.82;;;29.50;53.30;;;;;;4967017;28;20561;-47
2021/07/03 10:54:48;;;;;;;12.38;10.07;;;29.30;53.20;;;;;;4992863;28;20049;-47
2021/07/03 10:57:26;;;;;;;10.52;9.23;;;29.00;53.80;;;;;;5000633;28;20141;-46
2021/07/03 11:00:03;;;;;;;30.95;28.02;;;29.20;53.10;;;;;;4988954;28;20099;-46
2021/07/03 11:02:33;;;;;;;10.43;9.35;;;28.70;54.10;;;;;;4989244;28;20092;-46
2021/07/03 11:05:11;;;;;;;10.90;8.93;;;28.10;53.30;;;;;;4971997;28;20054;-46
2021/07/03 11:07:53;;;;;;;11.57;7.97;;;28.20;54.50;;;;;;4970751;28;20077;-46
2021/07/03 11:10:32;;;;;;;10.18;8.63;;;28.20;55.50;;;;;;4990015;28;20495;-45
2021/07/03 11:12:59;;;;;;;9.52;8.25;;;28.70;53.40;;;;;;4988303;28;20495;-49
2021/07/03 11:15:35;;;;;;;10.18;6.93;;;28.80;52.60;;;;;;4988724;28;20049;-46
2021/07/03 11:18:04;;;;;;;11.35;9.00;;;29.00;53.00;;;;;;4988467;28;20054;-45
2021/07/03 11:20:39;;;;;;;9.10;8.00;;;29.20;50.80;;;;;;4987807;28;20058;-47
2021/07/03 11:23:06;;;;;;;9.10;7.38;;;29.00;52.40;;;;;;4995162;28;20042;-45
2021/07/03 11:25:46;;;;;;;10.82;7.68;;;28.90;51.10;;;;;;4989633;28;20060;-46
2021/07/03 11:28:28;;;;;;;9.23;7.03;;;28.10;52.90;;;;;;5003780;28;20169;-45
2021/07/03 11:31:00;;;;;;;8.60;7.10;;;27.60;54.20;;;;;;4993821;28;20054;-48
2021/07/03 11:33:27;;;;;;;9.95;7.10;;;27.70;53.70;;;;;;4988092;28;20058;-46
2021/07/03 11:36:01;;;;;;;8.30;7.13;;;28.10;52.60;;;;;;4994378;28;20052;-46
2021/07/03 11:38:34;;;;;;;7.80;6.28;;;28.30;52.70;;;;;;4990081;28;20050;-46
2021/07/03 11:41:06;;;;;;;7.93;7.05;;;28.90;51.70;;;;;;4988950;28;20145;-45
2021/07/03 11:43:36;;;;;;;7.70;6.60;;;28.50;51.20;;;;;;4991916;28;20054;-46
2021/07/03 11:46:08;;;;;;;8.05;7.10;;;28.70;52.10;;;;;;4990469;28;20054;-46
2021/07/03 11:48:35;;;;;;;7.22;6.53;;;29.10;50.40;;;;;;4992059;28;20105;-48
2021/07/03 11:51:04;;;;;;;8.40;6.85;;;29.40;51.10;;;;;;4992460;28;20065;-50
2021/07/03 11:53:36;;;;;;;8.68;7.25;;;29.80;49.90;;;;;;4992819;28;20108;-48
2021/07/03 11:56:05;;;;;;;8.95;6.97;;;29.60;47.80;;;;;;4991998;28;20525;-47
2021/07/03 11:58:37;;;;;;;8.25;6.45;;;29.70;50.00;;;;;;4973909;28;20050;-45
2021/07/03 12:01:08;;;;;;;9.00;6.20;;;30.10;51.20;;;;;;4990663;28;20054;-47
2021/07/03 12:03:46;;;;;;;12.10;7.47;;;30.10;49.50;;;;;;4991874;28;20051;-46
2021/07/03 12:06:23;;;;;;;7.95;6.65;;;30.70;48.90;;;;;;4992438;28;20073;-45
2021/07/03 12:08:53;;;;;;;8.18;6.80;;;30.80;48.40;;;;;;4994477;28;20073;-46
2021/07/03 12:11:20;;;;;;;;;;;30.60;48.30;;;;;;4991943;28;20410;-46
2021/07/03 12:13:56;;;;;;;15.32;13.80;;;29.60;46.40;;;;;;4994566;28;19925;-46
2021/07/03 12:16:25;;;;;;;8.88;6.88;;;29.40;48.20;;;;;;4991861;28;20061;-47
2021/07/03 12:18:56;;;;;;;10.32;8.68;;;29.20;48.20;;;;;;4991378;28;20140;-49
2021/07/03 12:21:30;;;;;;;7.93;7.03;;;29.40;47.70;;;;;;4991410;28;20054;-46
2021/07/03 12:24:08;;;;;;;8.32;6.57;;;29.60;48.90;;;;;;4991798;28;20065;-46
2021/07/03 12:26:53;;;;;;;9.75;8.85;;;29.70;50.30;;;;;;4993142;28;20801;-46
2021/07/03 12:29:34;;;;;;;7.88;6.63;;;30.10;46.40;;;;;;4992038;28;20156;-47
2021/07/03 12:32:13;;;;;;;7.75;6.82;;;29.90;46.40;;;;;;4990619;28;20050;-45
2021/07/03 12:34:52;;;;;;;7.65;6.25;;;29.50;45.80;;;;;;4993833;28;20504;-46
2021/07/03 12:37:28;;;;;;;8.73;7.18;;;29.40;47.20;;;;;;5000578;28;20043;-45
2021/07/03 12:40:10;;;;;;;8.35;7.47;;;29.10;47.60;;;;;;4997963;28;20046;-45
2021/07/03 12:42:45;;;;;;;28.00;25.35;;;29.50;47.90;;;;;;4980943;28;20162;-45
2021/07/03 12:45:22;;;;;;;10.63;9.52;;;29.30;47.10;;;;;;4991667;28;20514;-45
2021/07/03 12:48:12;;;;;;;13.05;11.80;;;28.70;51.40;;;;;;4991827;28;20060;-45
2021/07/03 12:50:43;;;;;;;8.93;6.70;;;29.00;49.10;;;;;;4991763;28;20046;-46
2021/07/03 12:53:13;;;;;;;12.90;11.35;;;29.30;49.70;;;;;;4989905;28;20081;-47
2021/07/03 12:55:45;;;;;;;8.57;7.72;;;29.40;47.40;;;;;;4991640;28;20047;-46
2021/07/03 12:58:22;;;;;;;22.35;20.20;;;29.30;48.10;;;;;;4998248;28;20531;-49
2021/07/03 13:00:54;;;;;;;9.88;8.93;;;29.50;48.60;;;;;;4972021;28;20066;-49
2021/07/03 13:03:28;;;;;;;12.13;9.52;;;29.40;47.80;;;;;;4971313;28;20055;-47
2021/07/03 13:06:03;;;;;;;8.48;7.53;;;29.60;46.60;;;;;;4969971;28;20058;-49
2021/07/03 13:08:36;;;;;;;10.80;9.35;;;29.90;47.70;;;;;;4971224;28;20497;-52
2021/07/03 13:11:04;;;;;;;10.93;8.18;;;29.80;47.60;;;;;;4976192;28;20133;-49
2021/07/03 13:13:30;;;;;;;7.85;7.05;;;30.10;48.40;;;;;;4971367;28;20051;-51
2021/07/03 13:15:56;;;;;;;9.05;7.43;;;30.00;46.60;;;;;;4971490;28;20051;-48
2021/07/03 13:18:31;;;;;;;8.63;7.68;;;30.40;46.70;;;;;;4971215;28;20066;-48
2021/07/03 13:21:01;;;;;;;8.82;6.72;;;30.70;45.20;;;;;;4971296;28;20058;-47